aviador You're here:

KEQY Decoded Metar

MONROE in NC, USA
Report Time2017-09-23 17:53:00
UTC Time2017-09-23 18:22:28
Flight Rules vfr VFR
Wind010° at 09 kt
W.Decomp.*RWY 05: 7.5 kt HW 5 kt LCW
W.Rank010° ranks 13
Current wind is above 010° avg. (6.8)
Visibility9999 m
Phenomena:N/A
Clouds:Broken 050 Hf
Expected CloudBase > 4,400 ft AGL from Temp-Dew spread
Ceiling5,000 ft
Temp29°C (ISA +15)
Dew Point18°C (51% RH)
Heat Index29.8°C
AAT28.5°C
QNH1018 hPa
Density Alt2,569 ft
Elevation696 ft
Report Wrong Elevation
Raw Report
METAR KEQY 231753Z AUTO 01009KT 10SM BKN050 29/18 A3005 RMK AO2 SLP175
T02940178 10306 20183 58008=

Extra information for KEQY:More info

Metar Taf Metar & Taf Last 4 Metars F.Rules Stats Wind Profile Meteogram Temp Stats Airport Information Weather charts Add Link Nearby VenuesMetar ALERT Operation Metar Decoded Social comments

AIRNAV info for KEQY